createdAt,value
2023-05-14T00:00:20.472Z,1016.9
2023-05-14T00:15:19.493Z,1016.8
2023-05-14T00:30:20.271Z,1016.7
2023-05-14T00:45:19.769Z,1016.6
2023-05-14T01:00:20.494Z,1016.6
2023-05-14T01:15:33.914Z,1016.5
2023-05-14T01:30:19.744Z,1016.6
2023-05-14T01:45:19.751Z,1016.6
2023-05-14T02:00:20.634Z,1016.5
2023-05-14T02:15:20.464Z,1016.5
2023-05-14T02:30:20.340Z,1016.4
2023-05-14T02:45:33.061Z,1016.3
2023-05-14T03:00:20.503Z,1016.3
2023-05-14T03:15:20.091Z,1016.3
2023-05-14T03:30:20.113Z,1016.2
2023-05-14T03:45:19.994Z,1016.2
2023-05-14T04:03:07.213Z,1016.2
2023-05-14T04:15:20.278Z,1016.2
2023-05-14T04:30:19.686Z,1016.2
2023-05-14T04:45:19.497Z,1016.2
2023-05-14T05:00:23.234Z,1016.2
2023-05-14T05:15:27.083Z,1016.2
2023-05-14T05:30:20.256Z,1016.2
2023-05-14T05:45:20.077Z,1016.3
2023-05-14T06:00:25.567Z,1016.3
2023-05-14T06:15:20.411Z,1016.3
2023-05-14T06:30:20.889Z,1016.3
2023-05-14T06:45:19.659Z,1016.3
2023-05-14T07:00:20.547Z,1016.3
2023-05-14T07:15:19.800Z,1016.2
2023-05-14T07:30:20.056Z,1016.1
2023-05-14T07:45:20.002Z,1016
2023-05-14T08:00:20.344Z,1015.9
2023-05-14T08:15:20.179Z,1015.8
2023-05-14T08:30:20.327Z,1015.7
2023-05-14T08:45:20.102Z,1015.6
2023-05-14T09:00:19.901Z,1015.5
2023-05-14T09:15:20.325Z,1015.3
2023-05-14T09:30:19.846Z,1015.3
2023-05-14T09:45:19.959Z,1015
2023-05-14T10:00:20.399Z,1015
2023-05-14T10:15:20.183Z,1014.9
2023-05-14T10:30:20.431Z,1014.7
2023-05-14T10:45:20.429Z,1014.6
2023-05-14T11:00:21.152Z,1014.6
2023-05-14T11:15:20.183Z,1014.4
2023-05-14T11:30:30.862Z,1014.2
2023-05-14T11:45:20.754Z,1014.1
2023-05-14T12:00:20.701Z,1014
2023-05-14T12:15:20.046Z,1013.8
2023-05-14T12:30:34.531Z,1013.7
2023-05-14T12:45:20.334Z,1013.6
2023-05-14T13:00:20.115Z,1013.6
2023-05-14T13:15:20.352Z,1013.4
2023-05-14T13:30:20.631Z,1013.4
2023-05-14T13:45:20.190Z,1013.3
2023-05-14T14:00:20.338Z,1013.2
2023-05-14T14:15:20.134Z,1013
2023-05-14T14:30:20.635Z,1012.9
2023-05-14T14:45:19.969Z,1012.7
2023-05-14T15:00:20.293Z,1012.6
2023-05-14T15:15:20.450Z,1012.5
2023-05-14T15:30:20.980Z,1012.4
2023-05-14T15:45:20.513Z,1012.4
2023-05-14T16:00:21.729Z,1012.2
2023-05-14T16:15:20.431Z,1012.1
2023-05-14T16:30:19.677Z,1012
2023-05-14T16:45:20.245Z,1012
2023-05-14T17:00:19.701Z,1011.9
2023-05-14T17:15:20.663Z,1011.9
2023-05-14T17:30:20.260Z,1011.9
2023-05-14T17:45:21.005Z,1011.8
2023-05-14T18:00:20.533Z,1011.8
2023-05-14T18:15:20.484Z,1011.8
2023-05-14T18:30:20.226Z,1011.8
2023-05-14T18:45:20.011Z,1011.9
2023-05-14T19:00:21.732Z,1011.9
2023-05-14T19:15:20.136Z,1011.9
2023-05-14T19:30:20.191Z,1011.9
2023-05-14T19:45:29.708Z,1011.9
2023-05-14T20:00:21.284Z,1011.8
2023-05-14T20:15:20.341Z,1011.9
2023-05-14T20:30:19.978Z,1011.8
2023-05-14T20:45:20.476Z,1011.7
2023-05-14T21:00:20.202Z,1011.5
2023-05-14T21:15:20.628Z,1011.4
2023-05-14T21:30:20.614Z,1011.2
2023-05-14T21:45:22.872Z,1011.1
2023-05-14T22:00:20.331Z,1011
2023-05-14T22:15:19.899Z,1010.9
2023-05-14T22:30:19.974Z,1010.8
2023-05-14T22:45:20.108Z,1010.7
2023-05-14T23:00:20.316Z,1010.5
2023-05-14T23:15:20.458Z,1010.3
2023-05-14T23:30:19.596Z,1010.2
2023-05-14T23:45:20.161Z,1009.9
